createdAt,value
2022-08-20T00:08:13.678Z,95.00
2022-08-20T00:18:17.330Z,95.60
2022-08-20T00:28:19.913Z,96.20
2022-08-20T00:38:24.002Z,96.80
2022-08-20T00:48:28.921Z,97.60
2022-08-20T00:58:32.830Z,98.20
2022-08-20T01:08:34.912Z,99.00
2022-08-20T01:18:38.958Z,99.40
2022-08-20T01:28:45.438Z,99.90
2022-08-20T01:38:54.276Z,99.90
2022-08-20T01:48:59.794Z,99.90
2022-08-20T01:59:05.464Z,99.90
2022-08-20T02:09:15.596Z,99.90
2022-08-20T02:19:21.245Z,99.90
2022-08-20T02:29:24.918Z,99.90
2022-08-20T02:39:27.316Z,99.90
2022-08-20T02:49:30.802Z,99.90
2022-08-20T02:59:32.821Z,99.90
2022-08-20T03:09:36.601Z,99.90
2022-08-20T03:19:38.565Z,99.90
2022-08-20T03:29:41.887Z,99.90
2022-08-20T03:39:44.015Z,99.90
2022-08-20T03:49:47.744Z,99.90
2022-08-20T03:59:54.650Z,99.90
2022-08-20T04:10:07.212Z,99.90
2022-08-20T04:20:12.561Z,99.90
2022-08-20T04:30:17.985Z,99.90
2022-08-20T04:40:20.099Z,99.90
2022-08-20T04:50:24.168Z,99.90
2022-08-20T05:00:26.302Z,99.90
2022-08-20T05:10:29.696Z,99.90
2022-08-20T05:20:33.371Z,99.90
2022-08-20T05:30:38.545Z,99.90
2022-08-20T05:40:43.735Z,99.90
2022-08-20T05:50:48.723Z,99.90
2022-08-20T06:00:51.981Z,99.90
2022-08-20T06:10:55.916Z,99.90
2022-08-20T06:20:57.884Z,99.90
2022-08-20T06:31:01.247Z,99.90
2022-08-20T06:41:03.318Z,99.90
2022-08-20T06:51:08.174Z,99.90
2022-08-20T07:01:12.381Z,99.90
2022-08-20T07:11:15.772Z,99.90
2022-08-20T07:21:17.831Z,99.90
2022-08-20T07:31:21.185Z,99.90
2022-08-20T07:41:23.237Z,99.90
2022-08-20T07:51:26.972Z,99.90
2022-08-20T08:01:31.369Z,99.90
2022-08-20T08:11:39.158Z,99.90
2022-08-20T08:21:41.647Z,99.90
2022-08-20T08:31:45.025Z,99.90
2022-08-20T08:41:48.928Z,99.90
2022-08-20T08:51:56.689Z,98.20
2022-08-20T09:02:00.473Z,92.60
2022-08-20T09:12:07.149Z,86.40
2022-08-20T09:22:10.573Z,85.30
2022-08-20T09:32:18.629Z,86.00
2022-08-20T09:42:24.790Z,84.60
2022-08-20T09:52:31.746Z,82.50
2022-08-20T10:02:33.905Z,84.80
2022-08-20T10:12:37.330Z,87.00
2022-08-20T10:22:39.294Z,85.40
2022-08-20T10:32:42.809Z,85.90
2022-08-20T10:42:45.152Z,84.20
2022-08-20T10:52:48.563Z,85.10
2022-08-20T11:02:50.568Z,87.40
2022-08-20T11:12:54.721Z,89.20
2022-08-20T11:22:56.781Z,85.50
2022-08-20T11:33:00.902Z,84.10
2022-08-20T11:43:18.705Z,85.20
2022-08-20T11:53:22.889Z,86.70
2022-08-20T12:03:24.944Z,85.30
2022-08-20T12:13:34.701Z,85.10
2022-08-20T12:23:50.615Z,85.20
2022-08-20T12:33:53.931Z,83.70
2022-08-20T12:43:55.885Z,83.30
2022-08-20T12:53:59.236Z,84.00
2022-08-20T13:04:01.164Z,84.40
2022-08-20T13:14:05.090Z,84.80
2022-08-20T13:24:07.574Z,85.00
2022-08-20T13:34:11.228Z,84.20
2022-08-20T13:44:13.398Z,83.50
2022-08-20T13:54:16.804Z,83.90
2022-08-20T14:04:56.615Z,84.60
2022-08-20T14:15:00.027Z,84.10
2022-08-20T14:25:02.238Z,83.30
2022-08-20T14:35:06.868Z,83.50
2022-08-20T14:45:11.690Z,83.30
2022-08-20T14:55:16.872Z,82.50
2022-08-20T15:05:19.305Z,81.40
2022-08-20T15:15:24.063Z,80.30
2022-08-20T15:25:28.281Z,80.30
2022-08-20T15:35:39.722Z,80.90
2022-08-20T15:45:41.695Z,80.50
2022-08-20T15:55:57.562Z,79.60
2022-08-20T16:06:06.465Z,78.50
2022-08-20T16:16:22.147Z,79.90
2022-08-20T16:26:43.192Z,83.30
2022-08-20T16:37:03.421Z,84.40
2022-08-20T16:47:15.100Z,87.80
2022-08-20T16:57:31.634Z,89.40
2022-08-20T17:07:46.136Z,90.20
2022-08-20T17:17:49.864Z,91.00
2022-08-20T17:27:51.885Z,90.00
2022-08-20T17:38:04.540Z,90.70
2022-08-20T17:48:17.095Z,90.60
2022-08-20T17:58:41.890Z,91.10
2022-08-20T18:09:12.936Z,91.80
2022-08-20T18:19:50.925Z,91.80
2022-08-20T18:30:11.532Z,92.90
2022-08-20T18:40:26.544Z,93.60
2022-08-20T18:50:42.893Z,94.30
2022-08-20T19:00:48.821Z,94.80
2022-08-20T19:10:58.892Z,95.20
2022-08-20T19:21:03.886Z,96.10
2022-08-20T19:31:11.142Z,96.40
2022-08-20T19:41:26.726Z,96.60
2022-08-20T19:51:45.817Z,97.00
2022-08-20T20:01:57.134Z,97.10
2022-08-20T20:12:09.621Z,97.70
2022-08-20T20:22:29.010Z,99.20
2022-08-20T20:32:31.781Z,99.10
2022-08-20T20:43:02.212Z,99.40
2022-08-20T20:53:04.269Z,99.90
2022-08-20T21:03:07.582Z,99.90
2022-08-20T21:13:11.308Z,99.90
2022-08-20T21:23:14.718Z,99.90
2022-08-20T21:33:16.745Z,99.90
2022-08-20T21:43:20.254Z,99.90
2022-08-20T21:53:22.797Z,99.90
2022-08-20T22:03:27.968Z,99.90
2022-08-20T22:13:31.895Z,99.90
2022-08-20T22:23:35.396Z,99.90
2022-08-20T22:33:38.676Z,99.90
2022-08-20T22:43:43.475Z,99.90
2022-08-20T22:53:59.945Z,99.90
2022-08-20T23:04:05.555Z,99.90
2022-08-20T23:14:07.601Z,99.90
2022-08-20T23:24:14.325Z,99.90
2022-08-20T23:34:16.827Z,99.90
2022-08-20T23:44:26.226Z,99.90
2022-08-20T23:54:30.342Z,99.90
